Time;durP1;ratioP1;P1;durP2;ratioP2;P2;SDS_P1;SDS_P2;PMS_P1;PMS_P2;Temp;Humidity;BMP_temperature;BMP_pressure;BME280_temperature;BME280_humidity;BME280_pressure;Samples;Min_cycle;Max_cycle;Signal;HPM_P1;HPM_P2
2022/04/20 00:02:31;;;;;;;14.02;5.50;;;;;;;;;;4891607;23;20056;-71
2022/04/20 00:04:57;;;;;;;12.75;5.72;;;;;;;;;;4897716;29;20074;-70
2022/04/20 00:07:23;;;;;;;10.95;5.80;;;;;;;;;;4882140;29;20055;-70
2022/04/20 00:09:50;;;;;;;15.57;6.57;;;;;;;;;;4897113;29;20484;-70
2022/04/20 00:12:16;;;;;;;11.32;5.38;;;;;;;;;;4897575;29;20123;-70
2022/04/20 00:14:45;;;;;;;10.43;5.25;;;;;;;;;;4897988;29;20097;-70
2022/04/20 00:17:11;;;;;;;8.35;5.45;;;;;;;;;;4898016;29;20084;-70
2022/04/20 00:19:37;;;;;;;14.23;6.60;;;10.20;99.90;;;;;;4881862;29;20044;-70
2022/04/20 00:22:03;;;;;;;14.23;5.18;;;;;;;;;;4897910;29;20052;-70
2022/04/20 00:24:29;;;;;;;9.02;5.10;;;;;;;;;;4897374;29;20037;-70
2022/04/20 00:26:55;;;;;;;12.63;5.07;;;;;;;;;;4898927;29;20103;-71
2022/04/20 00:29:21;;;;;;;11.80;5.15;;;;;;;;;;4881949;29;20040;-70
2022/04/20 00:31:47;;;;;;;8.90;4.63;;;8.80;99.90;;;;;;4897622;29;20047;-70
2022/04/20 00:34:13;;;;;;;9.32;5.20;;;;;;;;;;4878666;29;20045;-71
2022/04/20 00:36:39;;;;;;;12.45;5.97;;;;;;;;;;4863785;29;20049;-70
2022/04/20 00:39:05;;;;;;;12.35;5.35;;;;;;;;;;4893807;29;20093;-71
2022/04/20 00:41:31;;;;;;;13.50;5.13;;;9.30;96.60;;;;;;4897501;29;20036;-71
2022/04/20 00:43:58;;;;;;;14.52;5.38;;;;;;;;;;4897080;29;20139;-71
2022/04/20 00:46:25;;;;;;;14.52;6.30;;;;;;;;;;4897940;29;20080;-71
2022/04/20 00:48:51;;;;;;;12.95;5.55;;;9.30;96.30;;;;;;4896821;29;20135;-71
2022/04/20 00:51:17;;;;;;;10.02;5.43;;;10.00;99.90;;;;;;4897384;29;20036;-71
2022/04/20 00:53:43;;;;;;;21.73;6.20;;;;;;;;;;4896942;29;20507;-71
2022/04/20 00:56:09;;;;;;;14.10;5.65;;;;;;;;;;4897237;29;20132;-72
2022/04/20 00:58:39;;;;;;;14.27;6.22;;;9.20;96.60;;;;;;4897226;29;20079;-71
2022/04/20 01:01:05;;;;;;;14.95;5.53;;;;;;;;;;4896087;29;20064;-72
2022/04/20 01:03:31;;;;;;;12.23;5.57;;;;;;;;;;4884188;29;20061;-72
2022/04/20 01:05:57;;;;;;;11.68;5.18;;;;;;;;;;4877969;29;20048;-72
2022/04/20 01:08:24;;;;;;;15.93;5.75;;;;;;;;;;4863327;29;20128;-72
2022/04/20 01:10:50;;;;;;;15.10;7.00;;;;;;;;;;4892889;29;20076;-72
2022/04/20 01:13:16;;;;;;;14.35;5.28;;;;;;;;;;4895178;29;20557;-72
2022/04/20 01:15:42;;;;;;;14.10;6.22;;;9.20;96.20;;;;;;4893905;29;20124;-72
2022/04/20 01:18:15;;;;;;;15.32;5.55;;;9.00;96.90;;;;;;4896817;29;20048;-72
2022/04/20 01:20:42;;;;;;;10.98;5.32;;;9.00;96.00;;;;;;4884089;29;20084;-72
2022/04/20 01:23:08;;;;;;;14.93;6.18;;;;;;;;;;4894392;29;20045;-72
2022/04/20 01:25:34;;;;;;;12.77;5.70;;;;;;;;;;4885219;29;20060;-72
2022/04/20 01:28:01;;;;;;;10.70;5.93;;;9.00;96.40;;;;;;4884329;29;20488;-72
2022/04/20 01:30:27;;;;;;;13.25;5.75;;;;;;;;;;4889146;29;20080;-72
2022/04/20 01:32:55;;;;;;;15.32;5.35;;;9.00;96.40;;;;;;4875275;29;20068;-72
2022/04/20 01:35:22;;;;;;;14.90;6.10;;;;;;;;;;4879323;29;20064;-72
2022/04/20 01:37:48;;;;;;;19.55;5.90;;;;;;;;;;4882099;29;20056;-72
2022/04/20 01:40:14;;;;;;;10.18;5.75;;;;;;;;;;4887456;29;20047;-72
2022/04/20 01:42:40;;;;;;;14.50;5.97;;;;;;;;;;4881963;29;20052;-72
2022/04/20 01:45:06;;;;;;;11.80;6.07;;;9.20;99.90;;;;;;4883190;29;20609;-71
2022/04/20 01:47:32;;;;;;;13.70;6.75;;;;;;;;;;4881952;29;20045;-72
2022/04/20 01:49:58;;;;;;;20.50;6.90;;;;;;;;;;4885227;29;20037;-72
2022/04/20 01:52:24;;;;;;;11.88;5.68;;;;;;;;;;4900544;29;20044;-72
2022/04/20 01:54:50;;;;;;;16.08;6.38;;;;;;;;;;4898321;29;20049;-71
2022/04/20 01:57:16;;;;;;;14.38;6.22;;;;;;;;;;4882158;29;20101;-71
2022/04/20 01:59:43;;;;;;;14.15;5.80;;;;;;;;;;4867286;29;20045;-71
2022/04/20 02:04:53;;;;;;;19.42;7.45;;;;;;;;;;4884767;29;20084;-72
2022/04/20 02:07:19;;;;;;;17.48;7.25;;;;;;;;;;4884648;29;20052;-71
2022/04/20 02:09:45;;;;;;;11.65;6.03;;;;;;;;;;4891970;29;20047;-72
2022/04/20 02:12:11;;;;;;;14.35;6.53;;;;;;;;;;4899459;29;20127;-72
2022/04/20 02:14:37;;;;;;;13.68;6.18;;;;;;;;;;4884102;29;20097;-71
2022/04/20 02:17:05;;;;;;;14.38;7.22;;;;;;;;;;4897996;29;20492;-71
2022/04/20 02:19:31;;;;;;;15.40;7.05;;;;;;;;;;4894794;29;20045;-72
2022/04/20 02:21:57;;;;;;;14.95;6.80;;;;;;;;;;4896365;29;20147;-72
2022/04/20 02:24:23;;;;;;;17.08;7.00;;;;;;;;;;4887291;29;20041;-72
2022/04/20 02:26:49;;;;;;;16.25;6.82;;;;;;;;;;4886561;29;20104;-72
2022/04/20 02:29:15;;;;;;;16.15;6.90;;;;;;;;;;4881239;29;20489;-72
2022/04/20 02:31:41;;;;;;;15.30;6.97;;;;;;;;;;4892444;29;20048;-72
2022/04/20 02:34:07;;;;;;;13.45;6.50;;;;;;;;;;4897559;29;20044;-72
2022/04/20 02:36:33;;;;;;;15.48;6.38;;;;;;;;;;4893306;29;20124;-72
2022/04/20 02:39:03;;;;;;;15.82;6.90;;;;;;;;;;4899440;29;20484;-72
2022/04/20 02:41:29;;;;;;;11.75;6.15;;;;;;;;;;4889458;29;20464;-72
2022/04/20 02:43:56;;;;;;;17.20;7.10;;;;;;;;;;4865612;29;20045;-72
2022/04/20 02:46:23;;;;;;;23.38;7.72;;;8.20;97.50;;;;;;4887085;29;20041;-72
2022/04/20 02:48:49;;;;;;;13.05;6.45;;;8.30;97.10;;;;;;4912108;29;20132;-72
2022/04/20 02:51:16;;;;;;;13.88;7.32;;;;;;;;;;4876809;29;20120;-72
2022/04/20 02:53:42;;;;;;;15.43;7.45;;;;;;;;;;4880640;29;20043;-72
2022/04/20 02:56:08;;;;;;;15.98;6.85;;;;;;;;;;4887860;29;20037;-72
2022/04/20 02:58:34;;;;;;;12.95;6.45;;;;;;;;;;4865454;29;20052;-72
2022/04/20 03:01:00;;;;;;;13.25;6.90;;;;;;;;;;4893481;29;20139;-72
2022/04/20 03:03:26;;;;;;;13.20;7.05;;;;;;;;;;4865135;29;20060;-72
2022/04/20 03:05:53;;;;;;;13.57;6.65;;;;;;;;;;4875596;29;20052;-72
2022/04/20 03:08:19;;;;;;;16.80;6.70;;;;;;;;;;4865267;29;20092;-73
2022/04/20 03:10:45;;;;;;;16.63;7.28;;;;;;;;;;4878545;29;20150;-73
2022/04/20 03:13:11;;;;;;;16.95;7.35;;;;;;;;;;4849754;29;20048;-72
2022/04/20 03:15:37;;;;;;;14.02;7.03;;;;;;;;;;4880637;29;20048;-72
2022/04/20 03:18:03;;;;;;;15.43;7.25;;;;;;;;;;4869525;29;20108;-72
2022/04/20 03:20:29;;;;;;;17.52;7.45;;;;;;;;;;4851586;29;20398;-72
2022/04/20 03:22:55;;;;;;;16.88;7.85;;;;;;;;;;4879608;29;20083;-72
2022/04/20 03:25:22;;;;;;;14.35;7.30;;;;;;;;;;4883189;29;20054;-72
2022/04/20 03:27:48;;;;;;;14.07;7.28;;;;;;;;;;4869117;29;20402;-72
2022/04/20 03:30:14;;;;;;;17.80;7.70;;;6.90;99.90;;;;;;4865710;29;20041;-72
2022/04/20 03:32:41;;;;;;;15.63;7.63;;;7.70;97.70;;;;;;4850461;29;20080;-72
2022/04/20 03:35:07;;;;;;;24.27;7.43;;;8.20;99.90;;;;;;4895660;29;20073;-72
2022/04/20 03:37:33;;;;;;;18.58;7.30;;;;;;;;;;4859501;29;20485;-72
2022/04/20 03:39:59;;;;;;;17.85;8.20;;;;;;;;;;4867842;29;20516;-72
2022/04/20 03:42:26;;;;;;;17.23;7.45;;;;;;;;;;4865354;29;20501;-72
2022/04/20 03:44:52;;;;;;;14.80;7.93;;;;;;;;;;4864556;29;20049;-72
2022/04/20 03:47:18;;;;;;;19.23;8.23;;;;;;;;;;4870900;29;20172;-72
2022/04/20 03:49:44;;;;;;;15.05;7.68;;;;;;;;;;4869553;29;20045;-72
2022/04/20 03:52:11;;;;;;;20.90;7.53;;;;;;;;;;4864524;29;20037;-72
2022/04/20 03:54:37;;;;;;;14.68;7.22;;;;;;;;;;4864231;29;20052;-72
2022/04/20 03:57:03;;;;;;;14.60;7.80;;;;;;;;;;4867846;29;20400;-72
2022/04/20 03:59:33;;;;;;;15.05;8.07;;;7.50;98.40;;;;;;4882695;29;20036;-72
2022/04/20 04:01:59;;;;;;;19.85;7.75;;;;;;;;;;4876799;29;20084;-73
2022/04/20 04:04:26;;;;;;;19.73;7.75;;;;;;;;;;4898226;29;20059;-72
2022/04/20 04:06:52;;;;;;;17.98;7.95;;;;;;;;;;4882930;29;20082;-72
2022/04/20 04:09:18;;;;;;;20.73;7.57;;;;;;;;;;4882240;29;20037;-72
2022/04/20 04:11:44;;;;;;;28.08;9.88;;;;;;;;;;4898188;29;20047;-71
2022/04/20 04:14:10;;;;;;;15.60;7.90;;;;;;;;;;4879306;29;20045;-71
2022/04/20 04:16:36;;;;;;;19.33;8.02;;;;;;;;;;4892524;29;20447;-72
2022/04/20 04:19:07;;;;;;;18.95;8.60;;;8.10;99.90;;;;;;4888314;29;20080;-72
2022/04/20 04:21:36;;;;;;;19.58;8.30;;;7.10;98.40;;;;;;4910413;29;20068;-73
2022/04/20 04:24:03;;;;;;;17.95;8.05;;;;;;;;;;4863341;29;20049;-72
2022/04/20 04:26:30;;;;;;;20.48;8.23;;;6.30;99.90;;;;;;4894542;29;20045;-72
2022/04/20 04:28:57;;;;;;;14.52;8.18;;;;;;;;;;4893765;29;20056;-71
2022/04/20 04:31:24;;;;;;;16.27;7.90;;;;;;;;;;4883247;29;20056;-72
2022/04/20 04:33:50;;;;;;;17.85;8.27;;;;;;;;;;4895134;29;20051;-72
2022/04/20 04:36:16;;;;;;;18.10;8.50;;;;;;;;;;4897724;29;20036;-72
2022/04/20 04:38:42;;;;;;;19.40;8.85;;;;;;;;;;4885436;29;20045;-72
2022/04/20 04:41:08;;;;;;;19.85;8.65;;;;;;;;;;4893618;29;20044;-72
2022/04/20 04:43:34;;;;;;;20.45;7.82;;;;;;;;;;4871605;29;20186;-72
2022/04/20 04:48:48;;;;;;;17.98;7.88;;;;;;;;;;4882281;29;20067;-72
2022/04/20 04:51:15;;;;;;;14.73;7.65;;;;;;;;;;4897465;29;20519;-72
2022/04/20 04:53:41;;;;;;;18.25;8.65;;;;;;;;;;4887868;29;20124;-72
2022/04/20 04:56:07;;;;;;;16.85;7.40;;;;;;;;;;4877674;29;20051;-72
2022/04/20 04:58:33;;;;;;;19.17;8.50;;;;;;;;;;4892174;29;20119;-71
2022/04/20 05:00:59;;;;;;;20.60;8.60;;;;;;;;;;4882170;29;20041;-71
2022/04/20 05:03:26;;;;;;;16.60;7.43;;;;;;;;;;4887292;29;20574;-72
2022/04/20 05:05:53;;;;;;;16.73;8.65;;;;;;;;;;4877971;29;20056;-72
2022/04/20 05:08:19;;;;;;;18.63;7.95;;;;;;;;;;4866497;29;20045;-70
2022/04/20 05:10:45;;;;;;;19.02;8.82;;;;;;;;;;4863318;29;20080;-70
2022/04/20 05:13:11;;;;;;;23.73;8.88;;;7.90;99.90;;;;;;4866768;29;20091;-70
2022/04/20 05:15:37;;;;;;;20.27;8.35;;;;;;;;;;4866098;29;20493;-70
2022/04/20 05:18:03;;;;;;;16.65;8.57;;;;;;;;;;4894332;29;20146;-70
2022/04/20 05:20:29;;;;;;;15.98;8.15;;;;;;;;;;4878682;29;20092;-70
2022/04/20 05:22:55;;;;;;;17.80;8.55;;;;;;;;;;4878869;29;20045;-70
2022/04/20 05:25:22;;;;;;;13.70;7.95;;;;;;;;;;4889023;29;20044;-70
2022/04/20 05:27:48;;;;;;;20.08;8.32;;;;;;;;;;4897049;29;20044;-70
2022/04/20 05:30:14;;;;;;;15.02;8.52;;;;;;;;;;4892110;29;20485;-70
2022/04/20 05:32:41;;;;;;;15.75;7.97;;;;;;;;;;4893866;29;20048;-70
2022/04/20 05:35:07;;;;;;;12.95;8.43;;;;;;;;;;4864527;29;20041;-71
2022/04/20 05:43:03;;;;;;;14.65;7.70;;;;;;;;;;4896480;29;20051;-71
2022/04/20 05:45:29;;;;;;;18.52;9.18;;;;;;;;;;4878727;29;20101;-73
2022/04/20 05:47:58;;;;;;;20.98;8.85;;;;;;;;;;4892491;29;20048;-80
2022/04/20 05:50:24;;;;;;;17.70;8.52;;;;;;;;;;4880361;29;20490;-70
2022/04/20 05:52:53;;;;;;;16.23;7.88;;;;;;;;;;4878121;29;20052;-72
2022/04/20 05:55:20;;;;;;;20.15;8.27;;;;;;;;;;4893037;29;20040;-72
2022/04/20 05:57:47;;;;;;;21.25;8.25;;;;;;;;;;4884427;29;20060;-72
2022/04/20 06:00:14;;;;;;;22.48;9.07;;;8.50;99.90;;;;;;4876176;29;20511;-72
2022/04/20 06:02:40;;;;;;;28.38;8.95;;;;;;;;;;4869662;29;20068;-70
2022/04/20 06:05:07;;;;;;;18.83;8.40;;;8.00;98.80;;;;;;4875627;29;20045;-71
2022/04/20 06:07:34;;;;;;;16.35;7.55;;;;;;;;;;4896854;29;20052;-71
2022/04/20 06:10:00;;;;;;;22.08;8.05;;;;;;;;;;4886149;29;20045;-72
2022/04/20 06:12:26;;;;;;;15.18;8.10;;;;;;;;;;4878261;29;20041;-71
2022/04/20 06:14:52;;;;;;;18.98;8.88;;;;;;;;;;4887773;29;20040;-72
2022/04/20 06:17:18;;;;;;;16.95;7.93;;;;;;;;;;4899848;29;20498;-72
2022/04/20 06:19:44;;;;;;;20.55;8.30;;;;;;;;;;4892891;29;20177;-72
2022/04/20 06:22:11;;;;;;;17.27;8.32;;;;;;;;;;4898171;29;20049;-72
2022/04/20 06:24:37;;;;;;;17.88;7.90;;;;;;;;;;4912694;29;20057;-71
2022/04/20 06:27:05;;;;;;;13.68;8.02;;;;;;;;;;4915417;29;20047;-71
2022/04/20 06:29:31;;;;;;;16.65;8.75;;;7.60;99.90;;;;;;4875893;29;20056;-72
2022/04/20 06:31:57;;;;;;;19.77;8.20;;;;;;;;;;4880727;29;20131;-72
2022/04/20 06:34:23;;;;;;;16.60;7.95;;;;;;;;;;4890865;29;20040;-72
2022/04/20 06:36:49;;;;;;;21.63;7.75;;;;;;;;;;4898124;29;20477;-72
2022/04/20 06:39:15;;;;;;;15.63;7.88;;;;;;;;;;4873971;29;20087;-72
2022/04/20 06:41:41;;;;;;;16.45;8.38;;;;;;;;;;4881764;29;20489;-73
2022/04/20 06:44:07;;;;;;;17.38;8.05;;;;;;;;;;4882904;29;20510;-72
2022/04/20 06:46:33;;;;;;;15.18;7.53;;;;;;;;;;4894647;29;20429;-72
2022/04/20 06:48:59;;;;;;;20.02;7.88;;;;;;;;;;4876276;29;20104;-72
2022/04/20 06:51:26;;;;;;;15.70;8.05;;;;;;;;;;4898782;29;20048;-71
2022/04/20 06:59:23;;;;;;;14.88;7.97;;;;;;;;;;4899295;29;20500;-71
2022/04/20 07:01:49;;;;;;;18.33;8.05;;;;;;;;;;4868241;29;20052;-72
2022/04/20 07:04:15;;;;;;;19.88;7.38;;;;;;;;;;4899225;29;20505;-71
2022/04/20 07:06:41;;;;;;;13.40;7.55;;;;;;;;;;4868267;29;20053;-71
2022/04/20 07:09:07;;;;;;;16.80;7.30;;;;;;;;;;4883593;29;20095;-70
2022/04/20 07:11:33;;;;;;;15.73;7.63;;;;;;;;;;4899199;29;20052;-70
2022/04/20 07:13:59;;;;;;;17.40;6.97;;;;;;;;;;4899148;29;20044;-70
2022/04/20 07:16:27;;;;;;;12.15;6.55;;;;;;;;;;4899052;29;20519;-71
2022/04/20 07:18:53;;;;;;;14.43;7.20;;;9.60;99.90;;;;;;4899355;29;20450;-71
2022/04/20 07:21:20;;;;;;;17.40;6.70;;;;;;;;;;4883630;29;20400;-71
2022/04/20 07:23:46;;;;;;;15.52;7.10;;;;;;;;;;4898830;29;20084;-71
2022/04/20 07:26:13;;;;;;;12.38;6.95;;;;;;;;;;4884086;29;20041;-71
2022/04/20 07:28:38;;;;;;;16.05;7.25;;;10.10;99.90;;;;;;4890901;29;20052;-71
2022/04/20 07:31:04;;;;;;;13.15;6.28;;;;;;;;;;4882237;29;20041;-72
2022/04/20 07:33:31;;;;;;;14.63;6.90;;;;;;;;;;4881107;29;20049;-73
2022/04/20 07:35:57;;;;;;;25.33;8.27;;;;;;;;;;4880030;29;20049;-74
2022/04/20 07:38:25;;;;;;;18.67;6.80;;;;;;;;;;4887218;29;20076;-72
2022/04/20 07:40:52;;;;;;;14.77;7.30;;;;;;;;;;4889205;29;20434;-73
2022/04/20 07:43:18;;;;;;;16.40;7.57;;;;;;;;;;4887072;29;20044;-73
2022/04/20 07:45:44;;;;;;;21.50;7.38;;;;;;;;;;4893578;29;20044;-73
2022/04/20 07:48:10;;;;;;;13.30;6.75;;;;;;;;;;4882055;29;20045;-73
2022/04/20 07:50:36;;;;;;;14.40;6.60;;;;;;;;;;4883594;29;20064;-72
2022/04/20 07:53:04;;;;;;;11.52;5.45;;;;;;;;;;4883700;29;20520;-73
2022/04/20 07:55:32;;;;;;;8.02;5.25;;;10.30;94.20;;;;;;4874242;29;20037;-79
2022/04/20 07:58:00;;;;;;;13.52;5.40;;;10.40;94.10;;;;;;4876838;29;20124;-73
2022/04/20 08:00:26;;;;;;;11.80;5.35;;;10.50;93.30;;;;;;4889778;29;20485;-74
2022/04/20 08:03:11;;;;;;;9.88;4.65;;;;;;;;;;4879404;29;20063;-73
2022/04/20 08:05:38;;;;;;;10.55;5.05;;;;;;;;;;4864205;29;20081;-72
2022/04/20 08:08:04;;;;;;;8.57;5.38;;;;;;;;;;4887384;29;20836;-71
2022/04/20 08:10:31;;;;;;;9.90;5.28;;;;;;;;;;4894750;29;20123;-72
2022/04/20 08:12:57;;;;;;;12.40;5.28;;;;;;;;;;4881497;29;20385;-73
2022/04/20 08:15:23;;;;;;;11.80;4.82;;;;;;;;;;4888692;29;20040;-71
2022/04/20 08:17:49;;;;;;;8.88;5.20;;;;;;;;;;4885981;29;20045;-71
2022/04/20 08:20:15;;;;;;;10.30;5.28;;;;;;;;;;4894549;29;20070;-71
2022/04/20 08:22:45;;;;;;;10.75;5.05;;;;;;;;;;4889927;29;20036;-72
2022/04/20 08:25:14;;;;;;;8.70;5.50;;;;;;;;;;4889479;29;20500;-73
2022/04/20 08:27:40;;;;;;;11.65;5.10;;;;;;;;;;4909536;29;20049;-73
2022/04/20 08:30:10;;;;;;;10.80;5.30;;;;;;;;;;4871823;29;20100;-73
2022/04/20 08:32:38;;;;;;;15.50;5.68;;;;;;;;;;4881190;29;20041;-73
2022/04/20 08:35:04;;;;;;;9.15;5.32;;;;;;;;;;4878722;29;20045;-73
2022/04/20 08:37:30;;;;;;;11.38;5.90;;;;;;;;;;4894233;29;20405;-73
2022/04/20 08:39:57;;;;;;;10.00;5.32;;;;;;;;;;4910098;29;20045;-74
2022/04/20 08:42:24;;;;;;;9.73;5.35;;;;;;;;;;4909552;29;20051;-74
2022/04/20 08:44:51;;;;;;;12.57;6.15;;;;;;;;;;4878619;29;20045;-72
2022/04/20 08:47:22;;;;;;;11.57;5.53;;;12.00;90.90;;;;;;4886691;29;20051;-73
2022/04/20 08:49:50;;;;;;;9.50;4.57;;;11.80;91.20;;;;;;4892325;29;20080;-75
2022/04/20 08:52:38;;;;;;;13.90;5.43;;;11.70;90.20;;;;;;4892720;29;20041;-73
2022/04/20 08:55:05;;;;;;;10.90;4.95;;;;;;;;;;4891952;29;20405;-75
2022/04/20 08:57:32;;;;;;;17.75;5.65;;;12.10;90.80;;;;;;4878912;29;20508;-75
2022/04/20 08:59:59;;;;;;;10.50;5.10;;;;;;;;;;4878387;29;20084;-75
2022/04/20 09:02:25;;;;;;;9.35;5.10;;;;;;;;;;4879598;29;20067;-75
2022/04/20 09:04:52;;;;;;;10.80;5.00;;;;;;;;;;4888803;29;20057;-75
2022/04/20 09:07:18;;;;;;;8.82;4.47;;;;;;;;;;4888736;29;20397;-76
2022/04/20 09:09:44;;;;;;;9.93;4.85;;;;;;;;;;4890007;29;20048;-76
2022/04/20 09:12:20;;;;;;;11.68;5.53;;;12.30;90.10;;;;;;4876119;29;20131;-76
2022/04/20 09:14:50;;;;;;;7.18;4.38;;;12.50;88.70;;;;;;4859539;29;20363;-77
2022/04/20 09:17:18;;;;;;;9.48;4.45;;;12.60;88.30;;;;;;4904282;29;20442;-75
2022/04/20 09:19:52;;;;;;;8.95;4.75;;;12.60;85.80;;;;;;4877985;29;20045;-75
2022/04/20 09:22:23;;;;;;;9.25;4.38;;;12.70;88.70;;;;;;4885403;29;20044;-76
2022/04/20 09:25:17;;;;;;;7.95;4.10;;;12.70;88.60;;;;;;4891259;29;20075;-74
2022/04/20 09:27:43;;;;;;;9.00;4.35;;;;;;;;;;4877113;29;20092;-76
2022/04/20 09:30:13;;;;;;;7.75;4.10;;;;;;;;;;4862762;29;20053;-76
2022/04/20 09:32:41;;;;;;;11.80;4.82;;;13.20;87.60;;;;;;4892226;29;20068;-73
2022/04/20 09:35:09;;;;;;;8.82;4.22;;;14.00;87.00;;;;;;4895910;29;20468;-76
2022/04/20 09:37:36;;;;;;;9.43;4.15;;;;;;;;;;4883249;29;20088;-76
2022/04/20 09:40:05;;;;;;;12.10;4.55;;;;;;;;;;4878632;29;20120;-74
2022/04/20 09:42:32;;;;;;;8.30;4.82;;;;;;;;;;4882561;29;20040;-77
2022/04/20 09:45:00;;;;;;;8.15;4.38;;;13.70;86.50;;;;;;4893337;29;20053;-75
2022/04/20 09:50:23;;;;;;;8.25;4.60;;;14.10;91.60;;;;;;4908959;29;20113;-73
2022/04/20 09:52:52;;;;;;;8.60;4.20;;;13.70;85.40;;;;;;4883013;29;20045;-73
2022/04/20 09:55:28;;;;;;;7.38;4.22;;;14.60;90.80;;;;;;4874931;29;20100;-73
2022/04/20 09:58:08;;;;;;;8.48;4.40;;;14.00;84.40;;;;;;4890220;29;20490;-73
2022/04/20 10:00:44;;;;;;;9.65;3.95;;;14.20;81.50;;;;;;4912722;29;20056;-73
2022/04/20 10:03:10;;;;;;;8.25;3.95;;;;;;;;;;4891735;29;20064;-73
2022/04/20 10:05:37;;;;;;;15.52;4.72;;;14.20;90.30;;;;;;4889075;29;20057;-73
2022/04/20 10:08:05;;;;;;;8.75;4.75;;;;;;;;;;4912280;29;20048;-73
2022/04/20 10:10:31;;;;;;;6.88;3.80;;;;;;;;;;4866129;29;20048;-73
2022/04/20 10:12:58;;;;;;;8.60;3.70;;;;;;;;;;4885451;29;20500;-72
2022/04/20 10:18:18;;;;;;;8.27;4.30;;;14.70;80.40;;;;;;4912330;29;20053;-73
2022/04/20 10:20:47;;;;;;;8.52;3.90;;;14.80;81.50;;;;;;4881315;29;20408;-72
2022/04/20 10:23:17;;;;;;;7.72;3.38;;;14.60;79.40;;;;;;4908275;29;20077;-71
2022/04/20 10:25:43;;;;;;;8.48;3.17;;;14.60;79.90;;;;;;4866344;29;20048;-73
2022/04/20 10:28:17;;;;;;;7.07;3.60;;;14.70;87.00;;;;;;4875427;29;20045;-72
2022/04/20 10:30:43;;;;;;;5.38;3.25;;;;;;;;;;4880889;29;20091;-75
2022/04/20 10:33:14;;;;;;;9.02;2.97;;;14.90;78.90;;;;;;4888956;29;20068;-74
2022/04/20 10:35:55;;;;;;;6.35;3.10;;;;;;;;;;4899309;29;20050;-74
2022/04/20 10:38:22;;;;;;;6.85;3.03;;;;;;;;;;4889758;29;20045;-74
2022/04/20 10:41:13;;;;;;;5.20;3.15;;;15.50;84.70;;;;;;4899696;29;20525;-74
2022/04/20 10:43:43;;;;;;;10.60;3.05;;;15.30;75.90;;;;;;4898015;29;20089;-74
2022/04/20 10:46:15;;;;;;;8.57;3.60;;;14.90;84.10;;;;;;4895536;29;20386;-73
2022/04/20 10:48:52;;;;;;;9.15;3.22;;;15.70;83.90;;;;;;4872572;29;20205;-76
2022/04/20 10:51:35;;;;;;;5.97;2.83;;;15.70;82.80;;;;;;4899787;29;20445;-76
2022/04/20 10:54:20;;;;;;;7.93;3.08;;;15.40;82.30;;;;;;4897192;29;20366;-74
2022/04/20 10:57:09;;;;;;;5.50;3.17;;;15.80;83.10;;;;;;4880573;29;20045;-74
2022/04/20 10:59:37;;;;;;;20.75;3.33;;;15.60;73.00;;;;;;4867744;29;20113;-74
2022/04/20 11:02:04;;;;;;;5.28;2.85;;;;;;;;;;4896331;29;20053;-74
2022/04/20 11:04:48;;;;;;;6.03;2.60;;;16.20;83.40;;;;;;4894215;29;20084;-76
2022/04/20 11:07:26;;;;;;;11.00;3.03;;;16.20;82.80;;;;;;4899231;29;20052;-77
2022/04/20 11:10:05;;;;;;;8.15;3.30;;;16.60;80.80;;;;;;4882260;29;20108;-76
2022/04/20 11:18:38;;;;;;;6.93;3.00;;;16.40;80.40;;;;;;4898712;29;20579;-77
2022/04/20 11:21:05;;;;;;;5.13;2.97;;;;;;;;;;4867812;29;20536;-77
2022/04/20 11:24:03;;;;;;;5.95;2.65;;;16.70;80.10;;;;;;4884778;29;20052;-74
2022/04/20 11:26:34;;;;;;;9.80;3.35;;;16.80;80.60;;;;;;4880192;29;20464;-73
2022/04/20 11:29:14;;;;;;;5.35;3.20;;;16.50;80.60;;;;;;4887838;29;20048;-73
2022/04/20 11:31:43;;;;;;;13.63;3.90;;;16.90;71.60;;;;;;4880933;29;20453;-73
2022/04/20 11:34:10;;;;;;;7.32;3.38;;;16.70;70.70;;;;;;4888390;29;20383;-73
2022/04/20 11:36:43;;;;;;;9.77;3.58;;;17.50;79.20;;;;;;4898766;29;20092;-74
2022/04/20 11:39:09;;;;;;;6.45;3.90;;;;;;;;;;4890220;29;20128;-74
2022/04/20 11:41:35;;;;;;;8.63;4.22;;;;;;;;;;4879883;29;20080;-74
2022/04/20 11:44:05;;;;;;;7.72;3.35;;;;;;;;;;4870738;29;20482;-74
2022/04/20 11:46:32;;;;;;;9.82;3.92;;;;;;;;;;4891749;29;20132;-74
2022/04/20 11:48:58;;;;;;;10.00;4.18;;;17.30;70.30;;;;;;4892176;29;20378;-74
2022/04/20 11:51:28;;;;;;;9.60;4.32;;;17.30;72.00;;;;;;4911174;29;20079;-74
2022/04/20 11:53:55;;;;;;;6.97;3.90;;;17.80;80.10;;;;;;4884135;29;20040;-74
2022/04/20 11:56:34;;;;;;;11.52;4.18;;;16.60;78.30;;;;;;4871735;29;20045;-74
2022/04/20 11:59:00;;;;;;;12.93;3.95;;;;;;;;;;4884300;29;20051;-73
2022/04/20 12:01:26;;;;;;;7.22;3.80;;;;;;;;;;4897960;29;20052;-74
2022/04/20 12:03:54;;;;;;;6.78;3.90;;;;;;;;;;4873049;29;20044;-75
2022/04/20 12:06:24;;;;;;;7.90;4.22;;;17.50;79.30;;;;;;4877307;29;20049;-74
2022/04/20 12:08:53;;;;;;;7.22;3.80;;;17.60;71.70;;;;;;4869818;29;20041;-74
2022/04/20 12:11:19;;;;;;;9.60;3.90;;;17.00;78.60;;;;;;4877476;29;20041;-74
2022/04/20 12:13:45;;;;;;;6.78;4.22;;;17.50;78.50;;;;;;4894667;29;20059;-74
2022/04/20 12:16:14;;;;;;;7.00;3.60;;;17.50;68.30;;;;;;4848503;29;20045;-74
2022/04/20 12:18:49;;;;;;;6.30;3.70;;;18.20;79.30;;;;;;4894777;29;20048;-77
2022/04/20 12:21:44;;;;;;;5.85;3.40;;;16.90;78.80;;;;;;4866715;29;20521;-77
2022/04/20 12:24:22;;;;;;;5.63;3.58;;;17.80;68.70;;;;;;4876540;29;20455;-77
2022/04/20 12:26:52;;;;;;;6.38;3.58;;;17.90;69.10;;;;;;4871456;29;20565;-77
2022/04/20 12:29:28;;;;;;;6.03;3.72;;;17.40;79.00;;;;;;4874642;29;20045;-77
2022/04/20 12:31:55;;;;;;;7.70;4.82;;;18.50;80.20;;;;;;4849164;29;20101;-76
2022/04/20 12:34:23;;;;;;;12.45;6.15;;;18.10;81.60;;;;;;4863434;29;20051;-77
2022/04/20 12:36:53;;;;;;;9.77;5.82;;;18.40;82.40;;;;;;4866781;29;20056;-77
2022/04/20 12:39:40;;;;;;;21.58;6.50;;;18.10;83.40;;;;;;4875213;29;20041;-78
2022/04/20 12:42:10;;;;;;;10.65;6.53;;;17.70;84.50;;;;;;4894519;29;20047;-77
2022/04/20 12:44:36;;;;;;;13.30;6.25;;;;;;;;;;4878472;29;20565;-75
2022/04/20 12:47:22;;;;;;;16.25;6.82;;;17.50;76.60;;;;;;4884742;29;20120;-77
2022/04/20 12:50:04;;;;;;;12.30;6.68;;;17.70;84.80;;;;;;4856344;29;20044;-76
2022/04/20 12:52:31;;;;;;;13.35;6.15;;;18.00;85.10;;;;;;4873450;29;20052;-76
2022/04/20 12:54:57;;;;;;;9.90;5.82;;;;;;;;;;4887425;29;20053;-74
2022/04/20 13:03:02;;;;;;;15.88;6.15;;;18.50;85.30;;;;;;4893489;29;20414;-74
2022/04/20 13:05:32;;;;;;;13.40;7.30;;;18.00;84.80;;;;;;4844742;29;20113;-74
2022/04/20 13:07:59;;;;;;;14.98;7.63;;;;;;;;;;4859959;29;20123;-74
2022/04/20 13:10:25;;;;;;;14.82;6.70;;;;;;;;;;4890854;29;20057;-74
2022/04/20 13:12:55;;;;;;;16.80;7.30;;;17.20;84.00;;;;;;4896315;29;20045;-74
2022/04/20 13:15:21;;;;;;;20.55;7.68;;;;;;;;;;4886692;29;20068;-74
2022/04/20 13:17:48;;;;;;;11.27;6.70;;;;;;;;;;4878527;29;20057;-75
2022/04/20 13:20:16;;;;;;;13.88;6.88;;;17.90;76.30;;;;;;4887140;29;20049;-76
2022/04/20 13:22:42;;;;;;;14.25;6.63;;;;;;;;;;4894487;29;20127;-77
2022/04/20 13:27:55;;;;;;;18.55;7.35;;;18.20;81.00;;;;;;4893324;29;20053;-74
2022/04/20 13:30:36;;;;;;;15.68;6.60;;;17.60;74.90;;;;;;4890550;29;20048;-73
2022/04/20 13:33:04;;;;;;;16.55;7.63;;;16.70;84.30;;;;;;4873662;29;20040;-73
2022/04/20 13:35:31;;;;;;;16.00;7.50;;;18.30;85.70;;;;;;4888471;29;20077;-73
2022/04/20 13:37:56;;;;;;;18.42;7.20;;;18.40;85.40;;;;;;4909426;29;20060;-73
2022/04/20 13:40:23;;;;;;;12.25;6.60;;;18.10;85.10;;;;;;4877911;29;20078;-73
2022/04/20 13:42:49;;;;;;;14.73;7.10;;;;;;;;;;4878230;29;20131;-73
2022/04/20 13:45:15;;;;;;;16.70;7.57;;;17.50;83.40;;;;;;4878304;29;20072;-73
2022/04/20 13:47:41;;;;;;;16.52;7.07;;;;;;;;;;4877950;29;20045;-74
2022/04/20 13:50:08;;;;;;;19.25;7.00;;;;;;;;;;4878178;29;20101;-73
2022/04/20 13:52:37;;;;;;;19.48;7.00;;;18.30;80.20;;;;;;4879849;29;20044;-74
2022/04/20 13:55:05;;;;;;;18.42;6.85;;;17.60;75.20;;;;;;4879804;29;20045;-77
2022/04/20 13:57:32;;;;;;;15.05;6.03;;;;;;;;;;4893525;29;20080;-74
2022/04/20 13:59:59;;;;;;;16.02;6.95;;;17.60;74.70;;;;;;4888281;29;20080;-73
2022/04/20 14:02:25;;;;;;;15.23;6.72;;;;;;;;;;4881878;29;20497;-73
2022/04/20 14:04:51;;;;;;;13.90;6.40;;;;;;;;;;4884102;29;20049;-73
2022/04/20 14:07:18;;;;;;;16.75;6.68;;;;;;;;;;4880007;29;20102;-74
2022/04/20 14:09:44;;;;;;;10.57;6.38;;;17.30;75.20;;;;;;4879882;29;20474;-73
2022/04/20 14:12:10;;;;;;;19.27;6.53;;;;;;;;;;4874473;29;20116;-75
2022/04/20 14:14:36;;;;;;;15.90;6.20;;;;;;;;;;4880994;29;20036;-75
2022/04/20 14:17:02;;;;;;;9.73;5.90;;;17.20;83.00;;;;;;4882594;29;20044;-76
2022/04/20 14:19:28;;;;;;;16.08;5.72;;;;;;;;;;4883503;29;20168;-76
2022/04/20 14:21:54;;;;;;;13.05;5.15;;;;;;;;;;4890427;29;20524;-76
2022/04/20 14:24:20;;;;;;;12.50;5.07;;;;;;;;;;4863478;29;20128;-76
2022/04/20 14:32:19;;;;;;;10.52;5.22;;;17.80;83.20;;;;;;4895003;29;20045;-75
2022/04/20 14:34:47;;;;;;;13.73;5.18;;;18.40;83.70;;;;;;4908761;29;20045;-76
2022/04/20 14:37:14;;;;;;;20.77;5.28;;;18.30;74.80;;;;;;4880340;29;20052;-75
2022/04/20 14:39:41;;;;;;;10.55;5.40;;;18.20;74.60;;;;;;4894296;29;20128;-76